San Jose, Costa Rica
Current Conditions -  °F | °C
As of 4:00 PM on Friday 28 Nov 2014 (Local Time) from MROC Reporting Station
Few Clouds Few Clouds  
Wind Chill: 24°   Ceiling: Unl
Heat Index: 24°   Visibility: 6mi
Dew Point: 16°   Wind: 21mph
Humidity: 61%   Direction: 70°ENE
Pressure: 29.89"   Gusts: 32mph
Location:  10°N, 84.22°W
Report Text: MROC 282200Z 07018G28KT 9999 FEW035 24/16 A2989 NOSIG
Loading
Personal Weather Stations






























Interactive Weather Map New forecast layout! Learn more

10-Day Weather Forecast

Advertisements
Track Severe Weather on mobile